London, United Kingdom
Current Conditions -  °F | °C
As of 1:50 PM on Thursday 30 Oct 2014 (Local Time) from EGLC Reporting Station
Few Clouds Few Clouds  
Wind Chill: 66°   Ceiling: Unl
Heat Index: 66°   Visibility: 6mi
Dew Point: 57°   Wind: 8mph
Humidity: 73%   Direction: 210°SSW
Pressure: 30.06"   Gusts: NA
Location:  51.5°N, 0.13°W
Report Text: EGLC 301350Z 21007KT 180V240 9999 FEW016 19/14 Q1018
Loading
Personal Weather Stations






























Interactive Weather Map
Tropical Storm Tracking
New forecast layout! Learn more

10-Day Weather Forecast

Advertisements
Track Severe Weather on mobile